sensor_id;sensor_type;location;lat;lon;timestamp;P1;durP1;ratioP1;P2;durP2;ratioP2
82147;SDS011;71718;50.480;12.110;2023-12-20T00:01:56;1.75;;;1.48;;
82147;SDS011;71718;50.480;12.110;2023-12-20T00:04:22;1.67;;;1.58;;
82147;SDS011;71718;50.480;12.110;2023-12-20T00:06:49;1.58;;;1.48;;
82147;SDS011;71718;50.480;12.110;2023-12-20T00:09:15;1.90;;;1.80;;
82147;SDS011;71718;50.480;12.110;2023-12-20T00:11:42;1.70;;;1.60;;
82147;SDS011;71718;50.480;12.110;2023-12-20T00:14:08;1.70;;;1.60;;
82147;SDS011;71718;50.480;12.110;2023-12-20T00:16:34;1.67;;;1.58;;
82147;SDS011;71718;50.480;12.110;2023-12-20T00:19:01;1.40;;;1.40;;
82147;SDS011;71718;50.480;12.110;2023-12-20T00:21:27;1.17;;;1.17;;
82147;SDS011;71718;50.480;12.110;2023-12-20T00:23:54;2.17;;;2.00;;
82147;SDS011;71718;50.480;12.110;2023-12-20T00:26:20;1.75;;;1.70;;
82147;SDS011;71718;50.480;12.110;2023-12-20T00:28:46;2.00;;;1.88;;
82147;SDS011;71718;50.480;12.110;2023-12-20T00:31:13;1.88;;;1.67;;
82147;SDS011;71718;50.480;12.110;2023-12-20T00:33:39;1.80;;;1.70;;
82147;SDS011;71718;50.480;12.110;2023-12-20T00:36:06;1.73;;;1.58;;
82147;SDS011;71718;50.480;12.110;2023-12-20T00:38:33;1.70;;;1.60;;
82147;SDS011;71718;50.480;12.110;2023-12-20T00:40:59;1.50;;;1.40;;
82147;SDS011;71718;50.480;12.110;2023-12-20T00:43:25;1.30;;;1.30;;
82147;SDS011;71718;50.480;12.110;2023-12-20T00:45:52;1.70;;;1.60;;
82147;SDS011;71718;50.480;12.110;2023-12-20T00:48:18;1.48;;;1.38;;
82147;SDS011;71718;50.480;12.110;2023-12-20T00:50:45;1.35;;;1.35;;
82147;SDS011;71718;50.480;12.110;2023-12-20T00:53:11;1.80;;;1.70;;
82147;SDS011;71718;50.480;12.110;2023-12-20T00:55:38;1.15;;;1.15;;
82147;SDS011;71718;50.480;12.110;2023-12-20T00:58:04;1.30;;;1.30;;
82147;SDS011;71718;50.480;12.110;2023-12-20T01:00:30;1.65;;;1.55;;
82147;SDS011;71718;50.480;12.110;2023-12-20T01:02:57;1.35;;;1.30;;
82147;SDS011;71718;50.480;12.110;2023-12-20T01:05:23;1.38;;;1.38;;
82147;SDS011;71718;50.480;12.110;2023-12-20T01:07:50;1.48;;;1.38;;
82147;SDS011;71718;50.480;12.110;2023-12-20T01:10:16;1.10;;;1.10;;
82147;SDS011;71718;50.480;12.110;2023-12-20T01:12:43;1.48;;;1.45;;
82147;SDS011;71718;50.480;12.110;2023-12-20T01:15:09;1.38;;;1.38;;
82147;SDS011;71718;50.480;12.110;2023-12-20T01:17:36;1.55;;;1.55;;
82147;SDS011;71718;50.480;12.110;2023-12-20T01:20:02;1.30;;;1.30;;
82147;SDS011;71718;50.480;12.110;2023-12-20T01:22:29;1.25;;;1.25;;
82147;SDS011;71718;50.480;12.110;2023-12-20T01:24:56;1.20;;;1.20;;
82147;SDS011;71718;50.480;12.110;2023-12-20T01:27:22;1.20;;;1.20;;
82147;SDS011;71718;50.480;12.110;2023-12-20T01:29:48;1.05;;;1.05;;
82147;SDS011;71718;50.480;12.110;2023-12-20T01:32:15;1.15;;;1.15;;
82147;SDS011;71718;50.480;12.110;2023-12-20T01:34:41;1.20;;;1.20;;
82147;SDS011;71718;50.480;12.110;2023-12-20T01:37:08;1.27;;;1.27;;
82147;SDS011;71718;50.480;12.110;2023-12-20T01:39:34;1.63;;;1.52;;
82147;SDS011;71718;50.480;12.110;2023-12-20T01:42:00;1.30;;;1.30;;
82147;SDS011;71718;50.480;12.110;2023-12-20T01:44:27;1.08;;;1.08;;
82147;SDS011;71718;50.480;12.110;2023-12-20T01:46:53;1.30;;;1.30;;
82147;SDS011;71718;50.480;12.110;2023-12-20T01:49:20;1.05;;;1.05;;
82147;SDS011;71718;50.480;12.110;2023-12-20T01:51:48;1.00;;;1.00;;
82147;SDS011;71718;50.480;12.110;2023-12-20T01:54:14;0.93;;;0.93;;
82147;SDS011;71718;50.480;12.110;2023-12-20T01:56:41;1.33;;;1.33;;
82147;SDS011;71718;50.480;12.110;2023-12-20T01:59:08;3.67;;;1.20;;
82147;SDS011;71718;50.480;12.110;2023-12-20T02:01:35;1.08;;;1.08;;
82147;SDS011;71718;50.480;12.110;2023-12-20T02:04:02;1.33;;;1.33;;
82147;SDS011;71718;50.480;12.110;2023-12-20T02:06:30;1.20;;;1.20;;
82147;SDS011;71718;50.480;12.110;2023-12-20T02:08:57;1.63;;;1.17;;
82147;SDS011;71718;50.480;12.110;2023-12-20T02:11:24;1.02;;;1.02;;
82147;SDS011;71718;50.480;12.110;2023-12-20T02:13:51;1.20;;;1.20;;
82147;SDS011;71718;50.480;12.110;2023-12-20T02:16:19;1.10;;;1.10;;
82147;SDS011;71718;50.480;12.110;2023-12-20T02:18:45;0.90;;;0.90;;
82147;SDS011;71718;50.480;12.110;2023-12-20T02:21:12;0.93;;;0.93;;
82147;SDS011;71718;50.480;12.110;2023-12-20T02:23:38;1.05;;;1.05;;
82147;SDS011;71718;50.480;12.110;2023-12-20T02:26:05;1.30;;;1.30;;
82147;SDS011;71718;50.480;12.110;2023-12-20T02:28:31;1.30;;;1.30;;
82147;SDS011;71718;50.480;12.110;2023-12-20T02:30:58;1.10;;;1.10;;
82147;SDS011;71718;50.480;12.110;2023-12-20T02:33:24;1.13;;;1.13;;
82147;SDS011;71718;50.480;12.110;2023-12-20T02:35:51;0.90;;;0.90;;
82147;SDS011;71718;50.480;12.110;2023-12-20T02:38:18;1.40;;;1.40;;
82147;SDS011;71718;50.480;12.110;2023-12-20T02:40:44;1.02;;;1.02;;
82147;SDS011;71718;50.480;12.110;2023-12-20T02:43:15;1.10;;;1.10;;
82147;SDS011;71718;50.480;12.110;2023-12-20T02:45:41;1.25;;;1.25;;
82147;SDS011;71718;50.480;12.110;2023-12-20T02:48:08;1.00;;;1.00;;
82147;SDS011;71718;50.480;12.110;2023-12-20T02:50:35;1.15;;;1.02;;
82147;SDS011;71718;50.480;12.110;2023-12-20T02:53:01;1.25;;;1.25;;
82147;SDS011;71718;50.480;12.110;2023-12-20T02:55:27;1.20;;;1.20;;
82147;SDS011;71718;50.480;12.110;2023-12-20T02:57:54;1.20;;;1.20;;
82147;SDS011;71718;50.480;12.110;2023-12-20T03:00:20;1.40;;;1.40;;
82147;SDS011;71718;50.480;12.110;2023-12-20T03:02:47;1.10;;;1.10;;
82147;SDS011;71718;50.480;12.110;2023-12-20T03:05:13;1.10;;;1.10;;
82147;SDS011;71718;50.480;12.110;2023-12-20T03:07:39;1.30;;;1.30;;
82147;SDS011;71718;50.480;12.110;2023-12-20T03:10:06;0.88;;;0.88;;
82147;SDS011;71718;50.480;12.110;2023-12-20T03:12:45;1.00;;;1.00;;
82147;SDS011;71718;50.480;12.110;2023-12-20T03:15:11;0.95;;;0.95;;
82147;SDS011;71718;50.480;12.110;2023-12-20T03:17:38;1.15;;;1.15;;
82147;SDS011;71718;50.480;12.110;2023-12-20T03:20:04;1.00;;;1.00;;
82147;SDS011;71718;50.480;12.110;2023-12-20T03:22:32;1.05;;;1.05;;
82147;SDS011;71718;50.480;12.110;2023-12-20T03:24:58;1.10;;;1.10;;
82147;SDS011;71718;50.480;12.110;2023-12-20T03:27:24;1.20;;;1.20;;
82147;SDS011;71718;50.480;12.110;2023-12-20T03:29:51;1.10;;;1.10;;
82147;SDS011;71718;50.480;12.110;2023-12-20T03:32:17;1.00;;;1.00;;
82147;SDS011;71718;50.480;12.110;2023-12-20T03:34:43;1.00;;;1.00;;
82147;SDS011;71718;50.480;12.110;2023-12-20T03:37:10;1.27;;;1.27;;
82147;SDS011;71718;50.480;12.110;2023-12-20T03:39:36;1.02;;;1.02;;
82147;SDS011;71718;50.480;12.110;2023-12-20T03:42:03;1.45;;;1.45;;
82147;SDS011;71718;50.480;12.110;2023-12-20T03:44:30;1.38;;;1.33;;
82147;SDS011;71718;50.480;12.110;2023-12-20T03:46:56;1.10;;;1.10;;
82147;SDS011;71718;50.480;12.110;2023-12-20T03:49:22;1.02;;;1.02;;
82147;SDS011;71718;50.480;12.110;2023-12-20T03:51:49;1.23;;;1.23;;
82147;SDS011;71718;50.480;12.110;2023-12-20T03:54:15;1.00;;;1.00;;
82147;SDS011;71718;50.480;12.110;2023-12-20T03:56:42;0.90;;;0.90;;
82147;SDS011;71718;50.480;12.110;2023-12-20T03:59:08;0.90;;;0.90;;
82147;SDS011;71718;50.480;12.110;2023-12-20T04:01:34;0.80;;;0.80;;
82147;SDS011;71718;50.480;12.110;2023-12-20T04:04:01;0.93;;;0.93;;
82147;SDS011;71718;50.480;12.110;2023-12-20T04:06:27;0.98;;;0.98;;
82147;SDS011;71718;50.480;12.110;2023-12-20T04:08:54;1.20;;;1.20;;
82147;SDS011;71718;50.480;12.110;2023-12-20T04:11:20;1.10;;;1.10;;
82147;SDS011;71718;50.480;12.110;2023-12-20T04:13:47;0.90;;;0.90;;
82147;SDS011;71718;50.480;12.110;2023-12-20T04:16:13;1.00;;;1.00;;
82147;SDS011;71718;50.480;12.110;2023-12-20T04:18:39;0.93;;;0.93;;
82147;SDS011;71718;50.480;12.110;2023-12-20T04:21:06;0.90;;;0.90;;
82147;SDS011;71718;50.480;12.110;2023-12-20T04:23:32;1.10;;;1.10;;
82147;SDS011;71718;50.480;12.110;2023-12-20T04:25:59;1.40;;;1.30;;
82147;SDS011;71718;50.480;12.110;2023-12-20T04:28:25;0.90;;;0.90;;
82147;SDS011;71718;50.480;12.110;2023-12-20T04:30:52;0.90;;;0.90;;
82147;SDS011;71718;50.480;12.110;2023-12-20T04:33:18;1.02;;;1.02;;
82147;SDS011;71718;50.480;12.110;2023-12-20T04:35:44;11.45;;;1.23;;
82147;SDS011;71718;50.480;12.110;2023-12-20T04:38:11;1.00;;;1.00;;
82147;SDS011;71718;50.480;12.110;2023-12-20T04:40:37;1.13;;;1.13;;
82147;SDS011;71718;50.480;12.110;2023-12-20T04:43:04;0.90;;;0.90;;
82147;SDS011;71718;50.480;12.110;2023-12-20T04:45:30;0.95;;;0.95;;
82147;SDS011;71718;50.480;12.110;2023-12-20T04:47:56;1.10;;;1.10;;
82147;SDS011;71718;50.480;12.110;2023-12-20T04:50:23;1.10;;;1.10;;
82147;SDS011;71718;50.480;12.110;2023-12-20T04:52:50;1.20;;;1.20;;
82147;SDS011;71718;50.480;12.110;2023-12-20T04:55:17;1.05;;;1.05;;
82147;SDS011;71718;50.480;12.110;2023-12-20T04:57:44;1.10;;;1.10;;
82147;SDS011;71718;50.480;12.110;2023-12-20T05:00:11;1.08;;;1.08;;
82147;SDS011;71718;50.480;12.110;2023-12-20T05:02:37;0.90;;;0.90;;
82147;SDS011;71718;50.480;12.110;2023-12-20T05:05:04;1.05;;;1.05;;
82147;SDS011;71718;50.480;12.110;2023-12-20T05:07:30;1.00;;;1.00;;
82147;SDS011;71718;50.480;12.110;2023-12-20T05:09:58;0.80;;;0.80;;
82147;SDS011;71718;50.480;12.110;2023-12-20T05:12:24;1.05;;;1.05;;
82147;SDS011;71718;50.480;12.110;2023-12-20T05:14:54;1.02;;;1.02;;
82147;SDS011;71718;50.480;12.110;2023-12-20T05:17:20;1.00;;;1.00;;
82147;SDS011;71718;50.480;12.110;2023-12-20T05:19:47;0.98;;;0.98;;
82147;SDS011;71718;50.480;12.110;2023-12-20T05:22:13;1.10;;;1.10;;
82147;SDS011;71718;50.480;12.110;2023-12-20T05:24:40;1.00;;;1.00;;
82147;SDS011;71718;50.480;12.110;2023-12-20T05:27:06;0.80;;;0.80;;
82147;SDS011;71718;50.480;12.110;2023-12-20T05:29:33;0.93;;;0.93;;
82147;SDS011;71718;50.480;12.110;2023-12-20T05:31:59;1.13;;;1.13;;
82147;SDS011;71718;50.480;12.110;2023-12-20T05:34:25;1.08;;;1.08;;
82147;SDS011;71718;50.480;12.110;2023-12-20T05:36:52;0.95;;;0.95;;
82147;SDS011;71718;50.480;12.110;2023-12-20T05:39:18;1.00;;;1.00;;
82147;SDS011;71718;50.480;12.110;2023-12-20T05:41:45;1.13;;;1.13;;
82147;SDS011;71718;50.480;12.110;2023-12-20T05:44:11;0.90;;;0.90;;
82147;SDS011;71718;50.480;12.110;2023-12-20T05:46:37;1.50;;;1.40;;
82147;SDS011;71718;50.480;12.110;2023-12-20T05:49:04;1.20;;;1.20;;
82147;SDS011;71718;50.480;12.110;2023-12-20T05:51:30;0.80;;;0.80;;
82147;SDS011;71718;50.480;12.110;2023-12-20T05:53:57;0.90;;;0.90;;
82147;SDS011;71718;50.480;12.110;2023-12-20T05:56:23;1.08;;;1.08;;
82147;SDS011;71718;50.480;12.110;2023-12-20T05:58:49;1.08;;;1.08;;
82147;SDS011;71718;50.480;12.110;2023-12-20T06:01:16;0.93;;;0.93;;
82147;SDS011;71718;50.480;12.110;2023-12-20T06:03:43;0.70;;;0.70;;
82147;SDS011;71718;50.480;12.110;2023-12-20T06:06:09;1.00;;;1.00;;
82147;SDS011;71718;50.480;12.110;2023-12-20T06:08:42;1.63;;;1.52;;
82147;SDS011;71718;50.480;12.110;2023-12-20T06:11:09;1.00;;;1.00;;
82147;SDS011;71718;50.480;12.110;2023-12-20T06:13:35;1.05;;;1.05;;
82147;SDS011;71718;50.480;12.110;2023-12-20T06:16:01;0.82;;;0.82;;
82147;SDS011;71718;50.480;12.110;2023-12-20T06:18:28;1.00;;;1.00;;
82147;SDS011;71718;50.480;12.110;2023-12-20T06:20:54;1.65;;;1.55;;
82147;SDS011;71718;50.480;12.110;2023-12-20T06:23:21;1.63;;;1.52;;
82147;SDS011;71718;50.480;12.110;2023-12-20T06:25:47;1.17;;;1.17;;
82147;SDS011;71718;50.480;12.110;2023-12-20T06:28:13;1.58;;;1.48;;
82147;SDS011;71718;50.480;12.110;2023-12-20T06:30:40;1.00;;;1.00;;
82147;SDS011;71718;50.480;12.110;2023-12-20T06:33:07;1.10;;;1.10;;
82147;SDS011;71718;50.480;12.110;2023-12-20T06:35:33;0.90;;;0.90;;
82147;SDS011;71718;50.480;12.110;2023-12-20T06:38:02;0.98;;;0.98;;
82147;SDS011;71718;50.480;12.110;2023-12-20T06:40:29;1.10;;;1.10;;
82147;SDS011;71718;50.480;12.110;2023-12-20T06:42:55;1.45;;;1.38;;
82147;SDS011;71718;50.480;12.110;2023-12-20T06:45:34;2.05;;;1.95;;
82147;SDS011;71718;50.480;12.110;2023-12-20T06:48:00;1.63;;;1.52;;
82147;SDS011;71718;50.480;12.110;2023-12-20T06:50:27;1.38;;;1.38;;
82147;SDS011;71718;50.480;12.110;2023-12-20T06:52:53;1.23;;;1.23;;
82147;SDS011;71718;50.480;12.110;2023-12-20T06:55:19;1.13;;;1.13;;
82147;SDS011;71718;50.480;12.110;2023-12-20T06:57:46;1.83;;;1.73;;
82147;SDS011;71718;50.480;12.110;2023-12-20T07:00:13;1.50;;;1.40;;
82147;SDS011;71718;50.480;12.110;2023-12-20T07:02:40;1.55;;;1.45;;
82147;SDS011;71718;50.480;12.110;2023-12-20T07:05:06;1.30;;;1.30;;
82147;SDS011;71718;50.480;12.110;2023-12-20T07:07:33;1.50;;;1.40;;
82147;SDS011;71718;50.480;12.110;2023-12-20T07:10:00;1.45;;;1.40;;
82147;SDS011;71718;50.480;12.110;2023-12-20T07:12:26;2.20;;;2.03;;
82147;SDS011;71718;50.480;12.110;2023-12-20T07:14:53;1.40;;;1.40;;
82147;SDS011;71718;50.480;12.110;2023-12-20T07:17:19;1.15;;;1.15;;
82147;SDS011;71718;50.480;12.110;2023-12-20T07:19:45;1.30;;;1.25;;
82147;SDS011;71718;50.480;12.110;2023-12-20T07:22:12;1.10;;;1.10;;
82147;SDS011;71718;50.480;12.110;2023-12-20T07:24:39;1.52;;;1.42;;
82147;SDS011;71718;50.480;12.110;2023-12-20T07:27:05;1.45;;;1.35;;
82147;SDS011;71718;50.480;12.110;2023-12-20T07:29:31;1.30;;;1.30;;
82147;SDS011;71718;50.480;12.110;2023-12-20T07:31:58;1.33;;;1.30;;
82147;SDS011;71718;50.480;12.110;2023-12-20T07:34:24;1.50;;;1.50;;
82147;SDS011;71718;50.480;12.110;2023-12-20T07:36:51;1.27;;;1.27;;
82147;SDS011;71718;50.480;12.110;2023-12-20T07:39:17;1.55;;;1.45;;
82147;SDS011;71718;50.480;12.110;2023-12-20T07:41:44;1.17;;;1.17;;
82147;SDS011;71718;50.480;12.110;2023-12-20T07:44:12;1.25;;;1.25;;
82147;SDS011;71718;50.480;12.110;2023-12-20T07:46:38;0.85;;;0.85;;
82147;SDS011;71718;50.480;12.110;2023-12-20T07:49:05;1.05;;;1.05;;
82147;SDS011;71718;50.480;12.110;2023-12-20T07:51:31;0.95;;;0.95;;
82147;SDS011;71718;50.480;12.110;2023-12-20T07:53:58;1.42;;;1.30;;
82147;SDS011;71718;50.480;12.110;2023-12-20T07:56:24;0.77;;;0.77;;
82147;SDS011;71718;50.480;12.110;2023-12-20T07:58:50;0.85;;;0.85;;
82147;SDS011;71718;50.480;12.110;2023-12-20T08:01:19;1.05;;;1.05;;
82147;SDS011;71718;50.480;12.110;2023-12-20T08:03:48;1.40;;;1.30;;
82147;SDS011;71718;50.480;12.110;2023-12-20T08:06:15;3.63;;;1.05;;
82147;SDS011;71718;50.480;12.110;2023-12-20T08:08:41;1.10;;;1.10;;
82147;SDS011;71718;50.480;12.110;2023-12-20T08:11:10;1.42;;;1.35;;
82147;SDS011;71718;50.480;12.110;2023-12-20T08:13:36;0.80;;;0.80;;
82147;SDS011;71718;50.480;12.110;2023-12-20T08:16:03;0.95;;;0.95;;
82147;SDS011;71718;50.480;12.110;2023-12-20T08:18:31;1.02;;;1.02;;
82147;SDS011;71718;50.480;12.110;2023-12-20T08:20:58;0.80;;;0.80;;
82147;SDS011;71718;50.480;12.110;2023-12-20T08:23:24;1.08;;;1.08;;
82147;SDS011;71718;50.480;12.110;2023-12-20T08:25:53;1.20;;;1.20;;
82147;SDS011;71718;50.480;12.110;2023-12-20T08:28:19;1.30;;;1.20;;
82147;SDS011;71718;50.480;12.110;2023-12-20T08:30:46;1.20;;;1.20;;
82147;SDS011;71718;50.480;12.110;2023-12-20T08:33:13;1.08;;;1.08;;
82147;SDS011;71718;50.480;12.110;2023-12-20T08:35:39;1.10;;;1.10;;
82147;SDS011;71718;50.480;12.110;2023-12-20T08:38:06;1.92;;;1.83;;
82147;SDS011;71718;50.480;12.110;2023-12-20T08:40:32;1.02;;;1.02;;
82147;SDS011;71718;50.480;12.110;2023-12-20T08:42:59;1.13;;;1.13;;
82147;SDS011;71718;50.480;12.110;2023-12-20T08:45:26;1.35;;;1.35;;
82147;SDS011;71718;50.480;12.110;2023-12-20T08:47:52;1.13;;;1.13;;
82147;SDS011;71718;50.480;12.110;2023-12-20T08:50:19;1.10;;;1.10;;
82147;SDS011;71718;50.480;12.110;2023-12-20T08:52:45;0.95;;;0.95;;
82147;SDS011;71718;50.480;12.110;2023-12-20T08:55:12;1.33;;;1.30;;
82147;SDS011;71718;50.480;12.110;2023-12-20T08:57:38;1.10;;;1.10;;
82147;SDS011;71718;50.480;12.110;2023-12-20T09:00:05;1.42;;;1.42;;
82147;SDS011;71718;50.480;12.110;2023-12-20T09:02:34;1.38;;;1.38;;
82147;SDS011;71718;50.480;12.110;2023-12-20T09:05:00;3.28;;;1.63;;
82147;SDS011;71718;50.480;12.110;2023-12-20T09:07:27;1.15;;;1.15;;
82147;SDS011;71718;50.480;12.110;2023-12-20T09:09:54;1.33;;;1.33;;
82147;SDS011;71718;50.480;12.110;2023-12-20T09:12:21;1.92;;;1.83;;
82147;SDS011;71718;50.480;12.110;2023-12-20T09:14:48;2.28;;;2.13;;
82147;SDS011;71718;50.480;12.110;2023-12-20T09:17:16;2.72;;;1.50;;
82147;SDS011;71718;50.480;12.110;2023-12-20T09:19:43;1.77;;;1.67;;
82147;SDS011;71718;50.480;12.110;2023-12-20T09:22:10;2.45;;;2.25;;
82147;SDS011;71718;50.480;12.110;2023-12-20T09:24:37;2.60;;;2.40;;
82147;SDS011;71718;50.480;12.110;2023-12-20T09:27:04;2.67;;;2.47;;
82147;SDS011;71718;50.480;12.110;2023-12-20T09:29:31;2.33;;;2.15;;
82147;SDS011;71718;50.480;12.110;2023-12-20T09:31:58;1.73;;;1.63;;
82147;SDS011;71718;50.480;12.110;2023-12-20T09:34:24;2.13;;;1.98;;
82147;SDS011;71718;50.480;12.110;2023-12-20T09:36:51;1.27;;;1.27;;
82147;SDS011;71718;50.480;12.110;2023-12-20T09:39:18;2.20;;;2.10;;
82147;SDS011;71718;50.480;12.110;2023-12-20T09:41:49;2.70;;;2.15;;
82147;SDS011;71718;50.480;12.110;2023-12-20T09:44:26;2.13;;;1.92;;
82147;SDS011;71718;50.480;12.110;2023-12-20T09:46:54;1.98;;;1.88;;
82147;SDS011;71718;50.480;12.110;2023-12-20T09:49:21;2.00;;;1.90;;
82147;SDS011;71718;50.480;12.110;2023-12-20T09:51:49;2.58;;;2.38;;
82147;SDS011;71718;50.480;12.110;2023-12-20T09:54:17;1.73;;;1.65;;
82147;SDS011;71718;50.480;12.110;2023-12-20T09:56:44;2.50;;;2.08;;
82147;SDS011;71718;50.480;12.110;2023-12-20T09:59:13;1.95;;;1.85;;
82147;SDS011;71718;50.480;12.110;2023-12-20T10:01:40;2.10;;;2.00;;
82147;SDS011;71718;50.480;12.110;2023-12-20T10:04:08;1.85;;;1.75;;
82147;SDS011;71718;50.480;12.110;2023-12-20T10:06:39;2.17;;;1.98;;
82147;SDS011;71718;50.480;12.110;2023-12-20T10:09:06;1.80;;;1.70;;
82147;SDS011;71718;50.480;12.110;2023-12-20T10:11:34;2.17;;;1.83;;
82147;SDS011;71718;50.480;12.110;2023-12-20T10:14:01;3.08;;;2.05;;
82147;SDS011;71718;50.480;12.110;2023-12-20T10:16:28;2.70;;;2.45;;
82147;SDS011;71718;50.480;12.110;2023-12-20T10:18:55;2.10;;;2.00;;
82147;SDS011;71718;50.480;12.110;2023-12-20T10:21:22;5.82;;;3.65;;
82147;SDS011;71718;50.480;12.110;2023-12-20T10:23:49;5.25;;;2.88;;
82147;SDS011;71718;50.480;12.110;2023-12-20T10:26:19;1.60;;;1.50;;
82147;SDS011;71718;50.480;12.110;2023-12-20T10:31:31;2.22;;;2.03;;
82147;SDS011;71718;50.480;12.110;2023-12-20T10:34:00;2.78;;;2.60;;
82147;SDS011;71718;50.480;12.110;2023-12-20T10:36:31;2.63;;;2.42;;
82147;SDS011;71718;50.480;12.110;2023-12-20T10:38:59;3.08;;;2.22;;
82147;SDS011;71718;50.480;12.110;2023-12-20T10:41:29;3.78;;;2.55;;
82147;SDS011;71718;50.480;12.110;2023-12-20T10:44:00;3.05;;;2.75;;
82147;SDS011;71718;50.480;12.110;2023-12-20T10:46:28;2.10;;;1.90;;
82147;SDS011;71718;50.480;12.110;2023-12-20T10:48:56;2.03;;;1.73;;
82147;SDS011;71718;50.480;12.110;2023-12-20T10:51:23;1.80;;;1.70;;
82147;SDS011;71718;50.480;12.110;2023-12-20T10:53:52;1.80;;;1.70;;
82147;SDS011;71718;50.480;12.110;2023-12-20T10:56:19;5.78;;;1.80;;
82147;SDS011;71718;50.480;12.110;2023-12-20T10:58:46;2.00;;;1.88;;
82147;SDS011;71718;50.480;12.110;2023-12-20T11:01:14;1.80;;;1.70;;
82147;SDS011;71718;50.480;12.110;2023-12-20T11:03:48;2.42;;;1.70;;
82147;SDS011;71718;50.480;12.110;2023-12-20T11:08:53;1.30;;;1.30;;
82147;SDS011;71718;50.480;12.110;2023-12-20T11:11:32;1.52;;;1.50;;
82147;SDS011;71718;50.480;12.110;2023-12-20T11:14:02;6.25;;;2.10;;
82147;SDS011;71718;50.480;12.110;2023-12-20T11:16:31;1.67;;;1.58;;
82147;SDS011;71718;50.480;12.110;2023-12-20T11:19:13;2.03;;;1.92;;
82147;SDS011;71718;50.480;12.110;2023-12-20T11:21:40;1.77;;;1.67;;
82147;SDS011;71718;50.480;12.110;2023-12-20T11:24:07;1.83;;;1.73;;
82147;SDS011;71718;50.480;12.110;2023-12-20T11:26:34;2.83;;;2.20;;
82147;SDS011;71718;50.480;12.110;2023-12-20T11:32:02;1.80;;;1.70;;
82147;SDS011;71718;50.480;12.110;2023-12-20T11:34:33;2.92;;;2.17;;
82147;SDS011;71718;50.480;12.110;2023-12-20T11:37:02;1.95;;;1.85;;
82147;SDS011;71718;50.480;12.110;2023-12-20T11:39:29;2.60;;;2.40;;
82147;SDS011;71718;50.480;12.110;2023-12-20T11:41:57;1.30;;;1.30;;
82147;SDS011;71718;50.480;12.110;2023-12-20T11:44:30;2.10;;;2.00;;
82147;SDS011;71718;50.480;12.110;2023-12-20T11:46:57;4.82;;;2.10;;
82147;SDS011;71718;50.480;12.110;2023-12-20T11:49:24;3.33;;;2.38;;
82147;SDS011;71718;50.480;12.110;2023-12-20T11:51:50;2.42;;;2.22;;
82147;SDS011;71718;50.480;12.110;2023-12-20T11:54:17;2.55;;;2.30;;
82147;SDS011;71718;50.480;12.110;2023-12-20T11:56:43;2.45;;;2.25;;
82147;SDS011;71718;50.480;12.110;2023-12-20T11:59:09;2.15;;;2.00;;
82147;SDS011;71718;50.480;12.110;2023-12-20T12:01:48;4.70;;;1.40;;
82147;SDS011;71718;50.480;12.110;2023-12-20T12:04:15;1.85;;;1.75;;
82147;SDS011;71718;50.480;12.110;2023-12-20T12:06:42;1.60;;;1.50;;
82147;SDS011;71718;50.480;12.110;2023-12-20T12:09:08;2.15;;;1.70;;
82147;SDS011;71718;50.480;12.110;2023-12-20T12:11:34;2.35;;;1.42;;
82147;SDS011;71718;50.480;12.110;2023-12-20T12:14:01;1.80;;;1.70;;
82147;SDS011;71718;50.480;12.110;2023-12-20T12:16:27;2.58;;;2.38;;
82147;SDS011;71718;50.480;12.110;2023-12-20T12:18:55;8.00;;;2.30;;
82147;SDS011;71718;50.480;12.110;2023-12-20T12:24:08;1.10;;;1.10;;
82147;SDS011;71718;50.480;12.110;2023-12-20T12:26:35;1.60;;;1.50;;
82147;SDS011;71718;50.480;12.110;2023-12-20T12:29:02;2.22;;;2.03;;
82147;SDS011;71718;50.480;12.110;2023-12-20T12:31:28;2.53;;;2.35;;
82147;SDS011;71718;50.480;12.110;2023-12-20T12:33:54;1.77;;;1.67;;
82147;SDS011;71718;50.480;12.110;2023-12-20T12:36:22;1.63;;;1.55;;
82147;SDS011;71718;50.480;12.110;2023-12-20T12:38:48;2.10;;;1.90;;
82147;SDS011;71718;50.480;12.110;2023-12-20T12:41:15;4.50;;;1.85;;
82147;SDS011;71718;50.480;12.110;2023-12-20T12:43:41;2.22;;;2.05;;
82147;SDS011;71718;50.480;12.110;2023-12-20T12:46:08;2.25;;;1.95;;
82147;SDS011;71718;50.480;12.110;2023-12-20T12:48:34;2.55;;;2.35;;
82147;SDS011;71718;50.480;12.110;2023-12-20T12:51:01;2.40;;;2.03;;
82147;SDS011;71718;50.480;12.110;2023-12-20T12:53:27;1.92;;;1.83;;
82147;SDS011;71718;50.480;12.110;2023-12-20T12:55:54;1.80;;;1.70;;
82147;SDS011;71718;50.480;12.110;2023-12-20T12:58:20;1.23;;;1.23;;
82147;SDS011;71718;50.480;12.110;2023-12-20T13:00:47;7.72;;;1.88;;
82147;SDS011;71718;50.480;12.110;2023-12-20T13:03:14;1.40;;;1.30;;
82147;SDS011;71718;50.480;12.110;2023-12-20T13:05:40;1.23;;;1.23;;
82147;SDS011;71718;50.480;12.110;2023-12-20T13:08:11;1.25;;;1.25;;
82147;SDS011;71718;50.480;12.110;2023-12-20T13:10:37;1.50;;;1.40;;
82147;SDS011;71718;50.480;12.110;2023-12-20T13:13:04;1.95;;;1.60;;
82147;SDS011;71718;50.480;12.110;2023-12-20T13:15:31;1.50;;;1.45;;
82147;SDS011;71718;50.480;12.110;2023-12-20T13:17:58;1.05;;;1.05;;
82147;SDS011;71718;50.480;12.110;2023-12-20T13:20:24;1.40;;;1.30;;
82147;SDS011;71718;50.480;12.110;2023-12-20T13:22:51;1.02;;;1.02;;
82147;SDS011;71718;50.480;12.110;2023-12-20T13:25:17;4.18;;;1.75;;
82147;SDS011;71718;50.480;12.110;2023-12-20T13:27:43;1.55;;;1.45;;
82147;SDS011;71718;50.480;12.110;2023-12-20T13:30:10;1.40;;;1.40;;
82147;SDS011;71718;50.480;12.110;2023-12-20T13:32:37;2.13;;;2.03;;
82147;SDS011;71718;50.480;12.110;2023-12-20T13:35:03;1.42;;;1.42;;
82147;SDS011;71718;50.480;12.110;2023-12-20T13:37:30;1.25;;;1.25;;
82147;SDS011;71718;50.480;12.110;2023-12-20T13:39:57;1.70;;;1.60;;
82147;SDS011;71718;50.480;12.110;2023-12-20T13:42:24;3.97;;;1.63;;
82147;SDS011;71718;50.480;12.110;2023-12-20T13:44:50;2.67;;;1.83;;
82147;SDS011;71718;50.480;12.110;2023-12-20T13:47:16;1.10;;;1.10;;
82147;SDS011;71718;50.480;12.110;2023-12-20T13:49:43;1.42;;;1.40;;
82147;SDS011;71718;50.480;12.110;2023-12-20T13:52:09;1.50;;;1.40;;
82147;SDS011;71718;50.480;12.110;2023-12-20T13:54:36;1.35;;;1.35;;
82147;SDS011;71718;50.480;12.110;2023-12-20T13:57:03;2.13;;;1.92;;
82147;SDS011;71718;50.480;12.110;2023-12-20T13:59:41;2.03;;;1.25;;
82147;SDS011;71718;50.480;12.110;2023-12-20T14:02:08;1.02;;;1.02;;
82147;SDS011;71718;50.480;12.110;2023-12-20T14:04:34;1.13;;;1.13;;
82147;SDS011;71718;50.480;12.110;2023-12-20T14:07:08;1.23;;;1.23;;
82147;SDS011;71718;50.480;12.110;2023-12-20T14:09:36;2.17;;;2.08;;
82147;SDS011;71718;50.480;12.110;2023-12-20T14:12:02;1.65;;;1.55;;
82147;SDS011;71718;50.480;12.110;2023-12-20T14:14:29;3.85;;;2.47;;
82147;SDS011;71718;50.480;12.110;2023-12-20T14:16:55;2.25;;;2.08;;
82147;SDS011;71718;50.480;12.110;2023-12-20T14:19:22;4.30;;;1.73;;
82147;SDS011;71718;50.480;12.110;2023-12-20T14:21:48;1.02;;;1.02;;
82147;SDS011;71718;50.480;12.110;2023-12-20T14:24:14;1.40;;;1.30;;
82147;SDS011;71718;50.480;12.110;2023-12-20T14:26:41;1.30;;;1.30;;
82147;SDS011;71718;50.480;12.110;2023-12-20T14:29:07;1.95;;;1.85;;
82147;SDS011;71718;50.480;12.110;2023-12-20T14:31:34;1.85;;;1.75;;
82147;SDS011;71718;50.480;12.110;2023-12-20T14:34:01;3.03;;;1.77;;
82147;SDS011;71718;50.480;12.110;2023-12-20T14:36:27;1.10;;;1.10;;
82147;SDS011;71718;50.480;12.110;2023-12-20T14:38:54;1.88;;;1.30;;
82147;SDS011;71718;50.480;12.110;2023-12-20T14:41:20;1.70;;;1.60;;
82147;SDS011;71718;50.480;12.110;2023-12-20T14:43:46;1.10;;;1.10;;